sensor_id;sensor_type;location;lat;lon;timestamp;pressure;altitude;pressure_sealevel;temperature;humidity
7297;BME280;40758;54.038;11.684;2023-04-10T00:02:13;102492.53;;;0.42;85.36
7297;BME280;40758;54.038;11.684;2023-04-10T00:04:39;102494.09;;;0.45;85.59
7297;BME280;40758;54.038;11.684;2023-04-10T00:07:09;102489.97;;;0.41;85.57
7297;BME280;40758;54.038;11.684;2023-04-10T00:09:36;102485.22;;;0.44;85.50
7297;BME280;40758;54.038;11.684;2023-04-10T00:12:03;102484.91;;;0.49;85.39
7297;BME280;40758;54.038;11.684;2023-04-10T00:14:39;102488.44;;;0.49;85.81
7297;BME280;40758;54.038;11.684;2023-04-10T00:17:06;102484.91;;;0.49;85.58
7297;BME280;40758;54.038;11.684;2023-04-10T00:19:35;102486.94;;;0.45;85.43
7297;BME280;40758;54.038;11.684;2023-04-10T00:22:03;102477.56;;;0.40;85.63
7297;BME280;40758;54.038;11.684;2023-04-10T00:24:30;102459.88;;;0.26;85.58
7297;BME280;40758;54.038;11.684;2023-04-10T00:26:56;102480.84;;;0.43;85.25
7297;BME280;40758;54.038;11.684;2023-04-10T00:29:23;102482.88;;;0.40;85.53
7297;BME280;40758;54.038;11.684;2023-04-10T00:31:50;102487.63;;;0.36;85.31
7297;BME280;40758;54.038;11.684;2023-04-10T00:34:17;102486.00;;;0.34;85.43
7297;BME280;40758;54.038;11.684;2023-04-10T00:36:44;102481.38;;;0.24;85.90
7297;BME280;40758;54.038;11.684;2023-04-10T00:39:12;102476.09;;;0.23;85.60
7297;BME280;40758;54.038;11.684;2023-04-10T00:41:39;102487.88;;;0.20;85.67
7297;BME280;40758;54.038;11.684;2023-04-10T00:44:07;102477.19;;;0.20;85.84
7297;BME280;40758;54.038;11.684;2023-04-10T00:46:37;102450.00;;;0.03;85.61
7297;BME280;40758;54.038;11.684;2023-04-10T00:49:27;102479.31;;;0.28;85.86
7297;BME280;40758;54.038;11.684;2023-04-10T00:51:54;102468.84;;;0.25;86.12
7297;BME280;40758;54.038;11.684;2023-04-10T00:54:23;102478.44;;;0.28;85.55
7297;BME280;40758;54.038;11.684;2023-04-10T00:56:51;102476.75;;;0.26;85.82
7297;BME280;40758;54.038;11.684;2023-04-10T00:59:18;102481.25;;;0.26;85.69
7297;BME280;40758;54.038;11.684;2023-04-10T01:01:45;102472.38;;;0.25;85.99
7297;BME280;40758;54.038;11.684;2023-04-10T01:04:12;102469.69;;;0.25;85.96
7297;BME280;40758;54.038;11.684;2023-04-10T01:09:19;102464.81;;;0.19;85.67
7297;BME280;40758;54.038;11.684;2023-04-10T01:31:41;102468.59;;;0.04;86.37
7297;BME280;40758;54.038;11.684;2023-04-10T01:34:16;102464.44;;;0.00;86.17
7297;BME280;40758;54.038;11.684;2023-04-10T01:37:07;102463.69;;;-0.02;86.25
7297;BME280;40758;54.038;11.684;2023-04-10T01:39:38;102468.28;;;-0.04;86.24
7297;BME280;40758;54.038;11.684;2023-04-10T01:42:10;102462.72;;;-0.01;86.39
7297;BME280;40758;54.038;11.684;2023-04-10T01:44:40;102450.22;;;-0.01;86.49
7297;BME280;40758;54.038;11.684;2023-04-10T01:47:08;102454.16;;;0.07;86.65
7297;BME280;40758;54.038;11.684;2023-04-10T01:49:35;102454.44;;;0.15;86.46
7297;BME280;40758;54.038;11.684;2023-04-10T01:52:09;102450.69;;;0.17;86.84
7297;BME280;40758;54.038;11.684;2023-04-10T01:54:42;102459.34;;;0.21;86.37
7297;BME280;40758;54.038;11.684;2023-04-10T01:57:26;102445.13;;;0.20;86.50
7297;BME280;40758;54.038;11.684;2023-04-10T01:59:56;102447.81;;;0.20;86.43
7297;BME280;40758;54.038;11.684;2023-04-10T02:02:23;102452.63;;;0.15;86.79
7297;BME280;40758;54.038;11.684;2023-04-10T02:04:50;102455.88;;;0.08;86.58
7297;BME280;40758;54.038;11.684;2023-04-10T02:07:45;102459.97;;;0.01;86.54
7297;BME280;40758;54.038;11.684;2023-04-10T02:10:25;102449.03;;;0.04;86.95
7297;BME280;40758;54.038;11.684;2023-04-10T02:13:06;102455.03;;;0.07;86.54
7297;BME280;40758;54.038;11.684;2023-04-10T02:15:35;102450.13;;;0.01;86.58
7297;BME280;40758;54.038;11.684;2023-04-10T02:18:02;102450.97;;;0.02;86.97
7297;BME280;40758;54.038;11.684;2023-04-10T02:20:30;102453.31;;;0.06;86.94
7297;BME280;40758;54.038;11.684;2023-04-10T02:22:58;102454.16;;;0.07;86.86
7297;BME280;40758;54.038;11.684;2023-04-10T02:25:32;102439.44;;;0.01;87.23
7297;BME280;40758;54.038;11.684;2023-04-10T02:28:06;102444.09;;;0.10;87.01
7297;BME280;40758;54.038;11.684;2023-04-10T02:30:33;102439.16;;;0.17;87.58
7297;BME280;40758;54.038;11.684;2023-04-10T02:33:00;102430.59;;;0.24;87.45
7297;BME280;40758;54.038;11.684;2023-04-10T02:35:27;102426.22;;;0.23;87.44
7297;BME280;40758;54.038;11.684;2023-04-10T02:37:54;102432.06;;;0.29;87.54
7297;BME280;40758;54.038;11.684;2023-04-10T02:40:22;102424.03;;;0.29;87.45
7297;BME280;40758;54.038;11.684;2023-04-10T02:42:51;102415.88;;;0.19;87.29
7297;BME280;40758;54.038;11.684;2023-04-10T02:45:17;102428.53;;;0.28;86.83
7297;BME280;40758;54.038;11.684;2023-04-10T02:47:44;102419.91;;;0.24;87.03
7297;BME280;40758;54.038;11.684;2023-04-10T02:50:10;102409.44;;;0.21;87.20
7297;BME280;40758;54.038;11.684;2023-04-10T02:52:37;102422.34;;;0.28;86.95
7297;BME280;40758;54.038;11.684;2023-04-10T02:55:04;102417.75;;;0.30;87.31
7297;BME280;40758;54.038;11.684;2023-04-10T02:57:33;102419.22;;;0.34;87.52
7297;BME280;40758;54.038;11.684;2023-04-10T02:59:59;102402.78;;;0.27;87.20
7297;BME280;40758;54.038;11.684;2023-04-10T03:02:28;102422.84;;;0.33;87.03
7297;BME280;40758;54.038;11.684;2023-04-10T03:04:55;102409.50;;;0.33;87.37
7297;BME280;40758;54.038;11.684;2023-04-10T03:07:22;102409.50;;;0.33;87.44
7297;BME280;40758;54.038;11.684;2023-04-10T03:09:49;102411.09;;;0.35;87.42
7297;BME280;40758;54.038;11.684;2023-04-10T03:12:18;102399.91;;;0.30;87.06
7297;BME280;40758;54.038;11.684;2023-04-10T03:14:46;102400.88;;;0.29;87.24
7297;BME280;40758;54.038;11.684;2023-04-10T03:17:13;102383.81;;;0.19;87.02
7297;BME280;40758;54.038;11.684;2023-04-10T03:19:41;102393.53;;;0.20;86.98
7297;BME280;40758;54.038;11.684;2023-04-10T03:22:11;102391.91;;;0.17;86.85
7297;BME280;40758;54.038;11.684;2023-04-10T03:24:40;102387.53;;;0.16;86.98
7297;BME280;40758;54.038;11.684;2023-04-10T03:27:10;102387.03;;;0.11;87.53
7297;BME280;40758;54.038;11.684;2023-04-10T03:29:37;102382.31;;;0.15;86.91
7297;BME280;40758;54.038;11.684;2023-04-10T03:32:23;102387.47;;;0.18;87.00
7297;BME280;40758;54.038;11.684;2023-04-10T03:34:57;102388.53;;;0.15;87.22
7297;BME280;40758;54.038;11.684;2023-04-10T03:37:24;102382.97;;;0.18;87.23
7297;BME280;40758;54.038;11.684;2023-04-10T03:39:52;102385.38;;;0.21;87.23
7297;BME280;40758;54.038;11.684;2023-04-10T03:42:19;102384.53;;;0.21;87.08
7297;BME280;40758;54.038;11.684;2023-04-10T03:44:46;102384.88;;;0.16;87.59
7297;BME280;40758;54.038;11.684;2023-04-10T03:47:12;102384.66;;;0.19;87.54
7297;BME280;40758;54.038;11.684;2023-04-10T03:49:39;102376.78;;;0.18;87.32
7297;BME280;40758;54.038;11.684;2023-04-10T03:52:06;102379.31;;;0.19;87.40
7297;BME280;40758;54.038;11.684;2023-04-10T03:54:34;102373.34;;;0.16;87.22
7297;BME280;40758;54.038;11.684;2023-04-10T03:57:01;102356.72;;;0.12;87.73
7297;BME280;40758;54.038;11.684;2023-04-10T03:59:31;102367.41;;;0.12;87.47
7297;BME280;40758;54.038;11.684;2023-04-10T04:02:09;102379.91;;;0.23;87.46
7297;BME280;40758;54.038;11.684;2023-04-10T04:04:43;102374.38;;;0.26;87.56
7297;BME280;40758;54.038;11.684;2023-04-10T04:07:11;102368.19;;;0.25;87.90
7297;BME280;40758;54.038;11.684;2023-04-10T04:09:39;102368.19;;;0.25;87.50
7297;BME280;40758;54.038;11.684;2023-04-10T04:12:06;102358.34;;;0.26;87.97
7297;BME280;40758;54.038;11.684;2023-04-10T04:14:35;102355.78;;;0.24;87.52
7297;BME280;40758;54.038;11.684;2023-04-10T04:17:02;102360.88;;;0.28;87.91
7297;BME280;40758;54.038;11.684;2023-04-10T04:19:30;102362.97;;;0.24;87.89
7297;BME280;40758;54.038;11.684;2023-04-10T04:21:56;102366.47;;;0.24;87.71
7297;BME280;40758;54.038;11.684;2023-04-10T04:24:23;102363.16;;;0.21;87.25
7297;BME280;40758;54.038;11.684;2023-04-10T04:26:52;102338.81;;;0.02;87.81
7297;BME280;40758;54.038;11.684;2023-04-10T04:29:36;102360.50;;;0.21;87.65
7297;BME280;40758;54.038;11.684;2023-04-10T04:32:04;102366.34;;;0.26;87.72
7297;BME280;40758;54.038;11.684;2023-04-10T04:34:31;102348.22;;;0.18;87.67
7297;BME280;40758;54.038;11.684;2023-04-10T04:37:02;102352.78;;;0.29;87.75
7297;BME280;40758;54.038;11.684;2023-04-10T04:39:35;102360.34;;;0.35;87.97
7297;BME280;40758;54.038;11.684;2023-04-10T04:42:06;102360.94;;;0.39;87.70
7297;BME280;40758;54.038;11.684;2023-04-10T04:44:39;102366.78;;;0.44;88.16
7297;BME280;40758;54.038;11.684;2023-04-10T04:47:11;102366.78;;;0.44;87.91
7297;BME280;40758;54.038;11.684;2023-04-10T04:49:37;102360.72;;;0.42;87.71
7297;BME280;40758;54.038;11.684;2023-04-10T04:52:10;102349.28;;;0.40;87.74
7297;BME280;40758;54.038;11.684;2023-04-10T04:54:36;102355.38;;;0.42;87.54
7297;BME280;40758;54.038;11.684;2023-04-10T04:57:03;102359.97;;;0.40;87.91
7297;BME280;40758;54.038;11.684;2023-04-10T04:59:30;102341.00;;;0.32;87.51
7297;BME280;40758;54.038;11.684;2023-04-10T05:01:56;102354.63;;;0.40;87.46
7297;BME280;40758;54.038;11.684;2023-04-10T05:04:23;102362.03;;;0.36;87.47
7297;BME280;40758;54.038;11.684;2023-04-10T05:06:50;102361.19;;;0.36;87.86
7297;BME280;40758;54.038;11.684;2023-04-10T05:09:17;102366.16;;;0.40;87.82
7297;BME280;40758;54.038;11.684;2023-04-10T05:11:51;102367.75;;;0.43;87.79
7297;BME280;40758;54.038;11.684;2023-04-10T05:14:19;102365.81;;;0.45;87.55
7297;BME280;40758;54.038;11.684;2023-04-10T05:16:47;102362.16;;;0.46;87.62
7297;BME280;40758;54.038;11.684;2023-04-10T05:19:18;102361.31;;;0.45;87.72
7297;BME280;40758;54.038;11.684;2023-04-10T05:21:44;102364.63;;;0.49;88.00
7297;BME280;40758;54.038;11.684;2023-04-10T05:24:11;102358.09;;;0.53;87.93
7297;BME280;40758;54.038;11.684;2023-04-10T05:26:39;102353.09;;;0.48;88.05
7297;BME280;40758;54.038;11.684;2023-04-10T05:29:21;102365.25;;;0.64;88.06
7297;BME280;40758;54.038;11.684;2023-04-10T05:31:48;102371.03;;;0.70;87.99
7297;BME280;40758;54.038;11.684;2023-04-10T05:34:36;102364.44;;;0.74;88.13
7297;BME280;40758;54.038;11.684;2023-04-10T05:37:03;102356.31;;;0.76;87.95
7297;BME280;40758;54.038;11.684;2023-04-10T05:39:30;102365.47;;;0.96;87.61
7297;BME280;40758;54.038;11.684;2023-04-10T05:41:57;102361.84;;;1.19;87.92
7297;BME280;40758;54.038;11.684;2023-04-10T05:44:29;102365.50;;;1.41;87.82
7297;BME280;40758;54.038;11.684;2023-04-10T05:46:56;102360.75;;;1.55;87.46
7297;BME280;40758;54.038;11.684;2023-04-10T05:49:39;102361.34;;;1.59;86.82
7297;BME280;40758;54.038;11.684;2023-04-10T05:52:06;102360.16;;;1.63;86.96
7297;BME280;40758;54.038;11.684;2023-04-10T05:54:35;102353.53;;;1.67;86.63
7297;BME280;40758;54.038;11.684;2023-04-10T05:57:01;102351.31;;;1.83;87.21
7297;BME280;40758;54.038;11.684;2023-04-10T05:59:28;102359.47;;;1.93;86.42
7297;BME280;40758;54.038;11.684;2023-04-10T06:01:56;102356.28;;;1.99;86.05
7297;BME280;40758;54.038;11.684;2023-04-10T06:04:25;102353.22;;;2.15;86.62
7297;BME280;40758;54.038;11.684;2023-04-10T06:06:52;102353.88;;;2.28;86.83
7297;BME280;40758;54.038;11.684;2023-04-10T06:09:21;102354.94;;;2.37;86.00
7297;BME280;40758;54.038;11.684;2023-04-10T06:11:48;102347.03;;;2.35;86.21
7297;BME280;40758;54.038;11.684;2023-04-10T06:14:29;102344.16;;;2.27;86.30
7297;BME280;40758;54.038;11.684;2023-04-10T06:16:59;102324.69;;;2.14;86.44
7297;BME280;40758;54.038;11.684;2023-04-10T06:19:29;102313.38;;;2.10;86.41
7297;BME280;40758;54.038;11.684;2023-04-10T06:22:29;102344.47;;;2.55;86.28
7297;BME280;40758;54.038;11.684;2023-04-10T06:25:00;102334.16;;;2.92;86.25
7297;BME280;40758;54.038;11.684;2023-04-10T06:27:27;102333.91;;;3.35;85.87
7297;BME280;40758;54.038;11.684;2023-04-10T06:29:54;102326.00;;;3.74;85.89
7297;BME280;40758;54.038;11.684;2023-04-10T06:32:23;102329.56;;;4.04;85.25
7297;BME280;40758;54.038;11.684;2023-04-10T06:34:49;102323.09;;;4.06;84.93
7297;BME280;40758;54.038;11.684;2023-04-10T06:37:18;102320.66;;;4.03;84.79
7297;BME280;40758;54.038;11.684;2023-04-10T06:39:45;102330.88;;;4.19;84.43
7297;BME280;40758;54.038;11.684;2023-04-10T06:42:13;102322.94;;;4.37;84.17
7297;BME280;40758;54.038;11.684;2023-04-10T06:44:40;102320.81;;;4.60;83.96
7297;BME280;40758;54.038;11.684;2023-04-10T06:47:10;102323.50;;;4.60;83.11
7297;BME280;40758;54.038;11.684;2023-04-10T06:49:39;102312.72;;;4.60;83.21
7297;BME280;40758;54.038;11.684;2023-04-10T06:52:07;102321.84;;;4.96;83.01
7297;BME280;40758;54.038;11.684;2023-04-10T06:54:48;102311.63;;;5.37;82.93
7297;BME280;40758;54.038;11.684;2023-04-10T06:57:15;102305.94;;;5.85;81.42
7297;BME280;40758;54.038;11.684;2023-04-10T06:59:42;102307.38;;;6.43;80.56
7297;BME280;40758;54.038;11.684;2023-04-10T07:02:09;102295.94;;;6.92;80.24
7297;BME280;40758;54.038;11.684;2023-04-10T07:04:40;102299.72;;;7.42;80.50
7297;BME280;40758;54.038;11.684;2023-04-10T07:07:09;102293.91;;;7.71;80.21
7297;BME280;40758;54.038;11.684;2023-04-10T07:09:38;102295.16;;;7.93;79.64
7297;BME280;40758;54.038;11.684;2023-04-10T07:12:09;102294.63;;;7.81;78.16
7297;BME280;40758;54.038;11.684;2023-04-10T07:14:36;102291.06;;;7.81;78.31
7297;BME280;40758;54.038;11.684;2023-04-10T07:17:04;102289.97;;;8.24;77.63
7297;BME280;40758;54.038;11.684;2023-04-10T07:19:32;102288.13;;;8.65;76.36
7297;BME280;40758;54.038;11.684;2023-04-10T07:21:59;102288.72;;;9.00;76.42
7297;BME280;40758;54.038;11.684;2023-04-10T07:24:26;102283.56;;;9.21;73.82
7297;BME280;40758;54.038;11.684;2023-04-10T07:26:53;102278.94;;;9.38;74.99
7297;BME280;40758;54.038;11.684;2023-04-10T07:29:20;102275.19;;;9.39;73.81
7297;BME280;40758;54.038;11.684;2023-04-10T07:31:46;102265.22;;;9.40;73.69
7297;BME280;40758;54.038;11.684;2023-04-10T07:34:18;102276.28;;;9.22;72.75
7297;BME280;40758;54.038;11.684;2023-04-10T07:36:45;102264.13;;;9.18;73.80
7297;BME280;40758;54.038;11.684;2023-04-10T07:39:12;102264.13;;;9.10;72.90
7297;BME280;40758;54.038;11.684;2023-04-10T07:41:39;102268.41;;;8.96;72.91
7297;BME280;40758;54.038;11.684;2023-04-10T07:44:10;102257.59;;;8.96;73.21
7297;BME280;40758;54.038;11.684;2023-04-10T07:46:38;102259.28;;;8.89;72.71
7297;BME280;40758;54.038;11.684;2023-04-10T07:49:05;102254.00;;;9.03;73.01
7297;BME280;40758;54.038;11.684;2023-04-10T07:51:35;102255.91;;;8.95;72.16
7297;BME280;40758;54.038;11.684;2023-04-10T07:54:21;102259.63;;;8.86;72.59
7297;BME280;40758;54.038;11.684;2023-04-10T07:56:47;102267.09;;;8.75;72.72
7297;BME280;40758;54.038;11.684;2023-04-10T07:59:16;102263.38;;;8.85;72.86
7297;BME280;40758;54.038;11.684;2023-04-10T08:01:43;102249.13;;;8.91;72.99
7297;BME280;40758;54.038;11.684;2023-04-10T08:04:10;102241.00;;;8.99;73.08
7297;BME280;40758;54.038;11.684;2023-04-10T08:06:45;102236.69;;;9.13;72.26
7297;BME280;40758;54.038;11.684;2023-04-10T08:09:13;102245.13;;;9.57;72.38
7297;BME280;40758;54.038;11.684;2023-04-10T08:11:40;102246.84;;;10.04;72.04
7297;BME280;40758;54.038;11.684;2023-04-10T08:14:06;102242.84;;;10.37;71.03
7297;BME280;40758;54.038;11.684;2023-04-10T08:16:35;102239.19;;;10.68;71.78
7297;BME280;40758;54.038;11.684;2023-04-10T08:19:03;102237.50;;;10.67;69.89
7297;BME280;40758;54.038;11.684;2023-04-10T08:21:40;102240.97;;;10.76;69.72
7297;BME280;40758;54.038;11.684;2023-04-10T08:24:09;102216.78;;;10.81;69.23
7297;BME280;40758;54.038;11.684;2023-04-10T08:26:36;102229.44;;;10.88;69.14
7297;BME280;40758;54.038;11.684;2023-04-10T08:29:04;102228.31;;;10.98;69.38
7297;BME280;40758;54.038;11.684;2023-04-10T08:31:33;102221.19;;;11.26;69.09
7297;BME280;40758;54.038;11.684;2023-04-10T08:34:00;102210.81;;;11.36;67.99
7297;BME280;40758;54.038;11.684;2023-04-10T08:36:42;102228.84;;;11.73;67.36
7297;BME280;40758;54.038;11.684;2023-04-10T08:39:24;102220.06;;;12.14;67.00
7297;BME280;40758;54.038;11.684;2023-04-10T08:41:51;102223.94;;;12.27;64.62
7297;BME280;40758;54.038;11.684;2023-04-10T08:44:23;102221.25;;;12.33;65.20
7297;BME280;40758;54.038;11.684;2023-04-10T08:46:50;102215.06;;;12.18;65.16
7297;BME280;40758;54.038;11.684;2023-04-10T08:49:39;102214.22;;;12.17;64.50
7297;BME280;40758;54.038;11.684;2023-04-10T08:52:07;102213.25;;;12.25;64.87
7297;BME280;40758;54.038;11.684;2023-04-10T08:54:38;102215.28;;;12.44;62.66
7297;BME280;40758;54.038;11.684;2023-04-10T08:57:07;102205.34;;;12.58;63.66
7297;BME280;40758;54.038;11.684;2023-04-10T08:59:51;102201.13;;;12.90;63.13
7297;BME280;40758;54.038;11.684;2023-04-10T09:02:23;102196.50;;;13.25;63.04
7297;BME280;40758;54.038;11.684;2023-04-10T09:05:10;102195.69;;;13.38;62.38
7297;BME280;40758;54.038;11.684;2023-04-10T09:07:38;102183.56;;;13.47;61.21
7297;BME280;40758;54.038;11.684;2023-04-10T09:10:17;102176.44;;;13.53;60.30
7297;BME280;40758;54.038;11.684;2023-04-10T09:12:47;102184.44;;;13.68;59.33
7297;BME280;40758;54.038;11.684;2023-04-10T09:15:15;102184.88;;;13.71;59.40
7297;BME280;40758;54.038;11.684;2023-04-10T09:17:58;102173.34;;;13.76;59.02
7297;BME280;40758;54.038;11.684;2023-04-10T09:21:05;102173.94;;;13.51;57.38
7297;BME280;40758;54.038;11.684;2023-04-10T09:23:32;102160.06;;;13.46;58.73
7297;BME280;40758;54.038;11.684;2023-04-10T09:26:00;102157.13;;;13.61;58.55
7297;BME280;40758;54.038;11.684;2023-04-10T09:28:26;102160.75;;;13.75;57.84
7297;BME280;40758;54.038;11.684;2023-04-10T09:30:53;102148.16;;;13.87;56.82
7297;BME280;40758;54.038;11.684;2023-04-10T09:36:59;102145.41;;;13.87;57.62
7297;BME280;40758;54.038;11.684;2023-04-10T09:39:37;102138.28;;;14.06;57.22
7297;BME280;40758;54.038;11.684;2023-04-10T09:42:28;102138.25;;;14.13;56.25
7297;BME280;40758;54.038;11.684;2023-04-10T09:44:56;102140.97;;;14.46;56.08
7297;BME280;40758;54.038;11.684;2023-04-10T09:47:38;102135.06;;;14.69;54.46
7297;BME280;40758;54.038;11.684;2023-04-10T09:50:14;102128.38;;;14.51;52.35
7297;BME280;40758;54.038;11.684;2023-04-10T09:52:41;102131.13;;;13.85;51.04
7297;BME280;40758;54.038;11.684;2023-04-10T09:55:33;102121.47;;;13.96;51.98
7297;BME280;40758;54.038;11.684;2023-04-10T09:58:19;102114.97;;;14.03;52.21
7297;BME280;40758;54.038;11.684;2023-04-10T10:00:48;102103.59;;;14.13;51.79
7297;BME280;40758;54.038;11.684;2023-04-10T10:03:17;102108.53;;;14.76;52.77
7297;BME280;40758;54.038;11.684;2023-04-10T10:05:48;102101.81;;;15.16;51.20
7297;BME280;40758;54.038;11.684;2023-04-10T10:08:15;102102.16;;;15.33;49.29
7297;BME280;40758;54.038;11.684;2023-04-10T10:10:52;102083.50;;;14.79;48.30
7297;BME280;40758;54.038;11.684;2023-04-10T10:13:30;102089.75;;;14.93;49.01
7297;BME280;40758;54.038;11.684;2023-04-10T10:16:28;102089.06;;;15.04;49.10
7297;BME280;40758;54.038;11.684;2023-04-10T10:19:11;102077.06;;;15.05;48.14
7297;BME280;40758;54.038;11.684;2023-04-10T10:21:43;102084.03;;;14.94;49.07
7297;BME280;40758;54.038;11.684;2023-04-10T10:24:10;102068.53;;;14.81;47.19
7297;BME280;40758;54.038;11.684;2023-04-10T10:26:41;102067.41;;;14.96;47.86
7297;BME280;40758;54.038;11.684;2023-04-10T10:29:09;102053.72;;;14.57;46.85
7297;BME280;40758;54.038;11.684;2023-04-10T10:31:39;102056.66;;;14.62;45.39
7297;BME280;40758;54.038;11.684;2023-04-10T10:34:08;102041.47;;;14.73;45.99
7297;BME280;40758;54.038;11.684;2023-04-10T10:36:35;102053.31;;;14.47;45.68
7297;BME280;40758;54.038;11.684;2023-04-10T10:44:50;102040.66;;;14.59;43.73
7297;BME280;40758;54.038;11.684;2023-04-10T10:47:27;102040.47;;;14.99;44.94
7297;BME280;40758;54.038;11.684;2023-04-10T10:49:58;102033.56;;;14.97;44.64
7297;BME280;40758;54.038;11.684;2023-04-10T10:52:46;102016.91;;;14.98;44.63
7297;BME280;40758;54.038;11.684;2023-04-10T10:58:02;102009.31;;;15.57;41.99
7297;BME280;40758;54.038;11.684;2023-04-10T11:08:50;101994.34;;;15.59;40.73
7297;BME280;40758;54.038;11.684;2023-04-10T11:11:24;101982.78;;;15.57;38.20
7297;BME280;40758;54.038;11.684;2023-04-10T11:19:06;101967.47;;;15.25;39.42
7297;BME280;40758;54.038;11.684;2023-04-10T11:22:03;101969.91;;;15.39;39.56
7297;BME280;40758;54.038;11.684;2023-04-10T11:24:59;101947.25;;;15.76;39.63
7297;BME280;40758;54.038;11.684;2023-04-10T11:27:43;101943.41;;;15.58;38.71
7297;BME280;40758;54.038;11.684;2023-04-10T11:30:31;101924.09;;;15.28;38.67
7297;BME280;40758;54.038;11.684;2023-04-10T11:32:59;101925.97;;;15.78;40.13
7297;BME280;40758;54.038;11.684;2023-04-10T11:35:26;101917.13;;;15.94;39.16
7297;BME280;40758;54.038;11.684;2023-04-10T11:38:07;101905.56;;;16.10;38.27
7297;BME280;40758;54.038;11.684;2023-04-10T11:40:35;101904.81;;;16.03;38.29
7297;BME280;40758;54.038;11.684;2023-04-10T11:43:13;101910.06;;;15.68;37.92
7297;BME280;40758;54.038;11.684;2023-04-10T11:45:39;101900.44;;;15.59;37.57
7297;BME280;40758;54.038;11.684;2023-04-10T11:48:07;101881.59;;;15.87;38.81
7297;BME280;40758;54.038;11.684;2023-04-10T11:50:35;101878.22;;;16.22;38.10
7297;BME280;40758;54.038;11.684;2023-04-10T11:53:16;101887.47;;;16.09;37.35
7297;BME280;40758;54.038;11.684;2023-04-10T11:55:43;101887.25;;;15.92;37.20
7297;BME280;40758;54.038;11.684;2023-04-10T11:58:26;101872.34;;;16.37;38.16
7297;BME280;40758;54.038;11.684;2023-04-10T12:01:01;101874.38;;;16.41;37.02
7297;BME280;40758;54.038;11.684;2023-04-10T12:03:39;101865.41;;;16.64;37.00
7297;BME280;40758;54.038;11.684;2023-04-10T12:06:41;101863.94;;;16.62;35.31
7297;BME280;40758;54.038;11.684;2023-04-10T12:09:13;101849.97;;;16.82;36.62
7297;BME280;40758;54.038;11.684;2023-04-10T12:12:02;101850.06;;;16.75;36.25
7297;BME280;40758;54.038;11.684;2023-04-10T12:14:33;101842.31;;;16.42;36.83
7297;BME280;40758;54.038;11.684;2023-04-10T12:17:02;101846.16;;;16.41;37.20
7297;BME280;40758;54.038;11.684;2023-04-10T12:19:29;101846.50;;;16.44;36.52
7297;BME280;40758;54.038;11.684;2023-04-10T12:21:59;101844.44;;;16.40;36.07
7297;BME280;40758;54.038;11.684;2023-04-10T12:24:48;101835.19;;;16.83;37.10
7297;BME280;40758;54.038;11.684;2023-04-10T12:27:25;101839.41;;;16.67;34.69
7297;BME280;40758;54.038;11.684;2023-04-10T12:29:56;101819.31;;;16.43;34.08
7297;BME280;40758;54.038;11.684;2023-04-10T12:32:24;101821.34;;;16.36;34.08
7297;BME280;40758;54.038;11.684;2023-04-10T12:34:57;101819.19;;;16.38;33.23
7297;BME280;40758;54.038;11.684;2023-04-10T12:40:14;101800.59;;;16.40;33.13
7297;BME280;40758;54.038;11.684;2023-04-10T12:42:41;101802.03;;;16.42;32.93
7297;BME280;40758;54.038;11.684;2023-04-10T12:45:09;101793.94;;;16.36;33.07
7297;BME280;40758;54.038;11.684;2023-04-10T12:50:16;101771.09;;;16.65;33.73
7297;BME280;40758;54.038;11.684;2023-04-10T12:52:45;101789.72;;;16.98;33.79
7297;BME280;40758;54.038;11.684;2023-04-10T12:55:19;101790.94;;;16.91;33.54
7297;BME280;40758;54.038;11.684;2023-04-10T12:57:47;101771.78;;;16.61;32.48
7297;BME280;40758;54.038;11.684;2023-04-10T13:00:24;101782.47;;;16.39;32.80
7297;BME280;40758;54.038;11.684;2023-04-10T13:02:51;101783.78;;;16.90;33.76
7297;BME280;40758;54.038;11.684;2023-04-10T13:05:36;101781.59;;;17.15;33.27
7297;BME280;40758;54.038;11.684;2023-04-10T13:08:05;101777.91;;;17.21;31.98
7297;BME280;40758;54.038;11.684;2023-04-10T13:10:40;101752.38;;;17.21;31.97
7297;BME280;40758;54.038;11.684;2023-04-10T13:13:09;101752.75;;;17.24;33.02
7297;BME280;40758;54.038;11.684;2023-04-10T13:15:58;101745.00;;;17.10;32.05
7297;BME280;40758;54.038;11.684;2023-04-10T13:18:26;101744.53;;;16.89;32.16
7297;BME280;40758;54.038;11.684;2023-04-10T13:20:52;101737.59;;;16.87;32.76
7297;BME280;40758;54.038;11.684;2023-04-10T13:23:19;101711.38;;;16.91;33.08
7297;BME280;40758;54.038;11.684;2023-04-10T13:25:46;101721.75;;;16.65;33.49
7297;BME280;40758;54.038;11.684;2023-04-10T13:28:32;101725.09;;;16.79;34.36
7297;BME280;40758;54.038;11.684;2023-04-10T13:30:59;101722.28;;;17.26;34.16
7297;BME280;40758;54.038;11.684;2023-04-10T13:33:26;101713.34;;;17.31;33.21
7297;BME280;40758;54.038;11.684;2023-04-10T13:35:54;101702.13;;;17.20;32.84
7297;BME280;40758;54.038;11.684;2023-04-10T13:38:21;101701.09;;;16.98;33.42
7297;BME280;40758;54.038;11.684;2023-04-10T13:40:47;101680.50;;;16.72;33.78
7297;BME280;40758;54.038;11.684;2023-04-10T13:43:14;101680.09;;;16.33;33.65
7297;BME280;40758;54.038;11.684;2023-04-10T13:45:42;101685.84;;;16.32;34.79
7297;BME280;40758;54.038;11.684;2023-04-10T13:48:13;101663.09;;;16.43;34.45
7297;BME280;40758;54.038;11.684;2023-04-10T13:50:52;101669.38;;;16.67;34.37
7297;BME280;40758;54.038;11.684;2023-04-10T13:53:18;101662.00;;;16.67;34.05
7297;BME280;40758;54.038;11.684;2023-04-10T13:55:46;101645.69;;;16.72;33.53
7297;BME280;40758;54.038;11.684;2023-04-10T13:58:18;101660.91;;;16.68;33.73
7297;BME280;40758;54.038;11.684;2023-04-10T14:00:45;101647.34;;;16.50;33.60
7297;BME280;40758;54.038;11.684;2023-04-10T14:03:11;101650.31;;;16.60;34.25
7297;BME280;40758;54.038;11.684;2023-04-10T14:05:40;101646.63;;;16.66;34.71
7297;BME280;40758;54.038;11.684;2023-04-10T14:08:10;101637.91;;;16.58;34.70
7297;BME280;40758;54.038;11.684;2023-04-10T14:10:46;101638.41;;;16.31;35.00